createdAt,value
2022-12-27T00:00:11.580Z,101901.56
2022-12-27T00:05:15.690Z,101897.28
2022-12-27T00:10:13.586Z,101891.28
2022-12-27T00:15:11.557Z,101890.41
2022-12-27T00:20:11.853Z,101880.06
2022-12-27T00:25:14.208Z,101870.66
2022-12-27T00:30:12.644Z,101884.38
2022-12-27T00:35:10.947Z,101894.69
2022-12-27T00:40:09.532Z,101885.22
2022-12-27T00:45:10.327Z,101889.53
2022-12-27T00:50:08.373Z,101884.34
2022-12-27T00:55:09.203Z,101875.75
2022-12-27T01:00:10.418Z,101882.63
2022-12-27T01:05:10.253Z,101880.06
2022-12-27T01:10:08.303Z,101875.78
2022-12-27T01:15:07.218Z,101867.16
2022-12-27T01:20:07.295Z,101862.00
2022-12-27T01:25:07.229Z,101834.50
2022-12-27T01:30:05.213Z,101820.75
2022-12-27T01:35:03.259Z,101824.13
2022-12-27T01:40:01.105Z,101830.09
2022-12-27T01:45:02.230Z,101825.00
2022-12-27T01:50:03.275Z,101836.97
2022-12-27T01:55:04.312Z,101840.44
2022-12-27T02:00:03.702Z,101835.34
2022-12-27T02:05:03.169Z,101825.91
2022-12-27T02:10:02.378Z,101826.81
2022-12-27T02:15:02.195Z,101822.50
2022-12-27T02:20:05.964Z,101824.25
2022-12-27T02:25:17.519Z,101831.91
2022-12-27T02:30:17.016Z,101838.69
2022-12-27T02:35:16.312Z,101829.25
2022-12-27T02:40:33.347Z,101826.69
2022-12-27T02:45:52.437Z,101804.38
2022-12-27T02:51:13.934Z,101801.81
2022-12-27T02:56:36.280Z,101803.50
2022-12-27T03:01:59.737Z,101801.81
2022-12-27T03:07:14.035Z,101805.25
2022-12-27T03:12:33.554Z,101801.88
2022-12-27T03:17:35.679Z,101809.53
2022-12-27T03:22:51.743Z,101800.09
2022-12-27T03:28:10.153Z,101790.59
2022-12-27T03:33:15.432Z,101797.47
2022-12-27T03:38:15.104Z,101794.91
2022-12-27T03:43:14.858Z,101786.13
2022-12-27T03:48:17.738Z,101770.81
2022-12-27T03:53:17.870Z,101800.13
2022-12-27T03:58:15.768Z,101789.94
2022-12-27T04:03:14.991Z,101786.53
2022-12-27T04:08:30.441Z,101783.97
2022-12-27T04:13:45.487Z,101778.84
2022-12-27T04:19:02.232Z,101769.41
2022-12-27T04:24:17.279Z,101762.50
2022-12-27T04:29:32.344Z,101792.56
2022-12-27T04:34:44.026Z,101801.13
2022-12-27T04:39:42.300Z,101811.41
2022-12-27T04:44:57.344Z,101821.75
2022-12-27T04:50:28.664Z,101820.84
2022-12-27T04:55:28.247Z,101809.69
2022-12-27T05:00:44.840Z,101795.09
2022-12-27T05:05:44.820Z,101789.84
2022-12-27T05:11:00.447Z,101776.09
2022-12-27T05:15:58.321Z,101774.06
2022-12-27T05:21:02.414Z,101767.19
2022-12-27T05:26:00.304Z,101760.41
2022-12-27T05:31:01.651Z,101770.97
2022-12-27T05:36:01.662Z,101764.19
2022-12-27T05:41:00.147Z,101769.38
2022-12-27T05:46:03.727Z,101773.69
2022-12-27T05:51:06.574Z,101741.97
2022-12-27T05:56:04.845Z,101723.94
2022-12-27T06:01:02.792Z,101752.25
2022-12-27T06:06:01.409Z,101785.69
2022-12-27T06:11:04.924Z,101786.59
2022-12-27T06:16:04.288Z,101790.03
2022-12-27T06:21:02.970Z,101796.84
2022-12-27T06:26:00.881Z,101755.66
2022-12-27T06:31:00.632Z,101767.69
2022-12-27T06:35:58.612Z,101763.38
2022-12-27T06:41:01.687Z,101768.41
2022-12-27T06:46:03.363Z,101770.91
2022-12-27T06:51:04.574Z,101751.25
2022-12-27T06:56:04.204Z,101755.19
2022-12-27T07:01:09.658Z,101755.25
2022-12-27T07:06:09.257Z,101743.00
2022-12-27T07:11:08.983Z,101725.00
2022-12-27T07:16:07.403Z,101733.81
2022-12-27T07:21:07.702Z,101740.44
2022-12-27T07:26:05.705Z,101724.31
2022-12-27T07:31:07.211Z,101722.75
2022-12-27T07:36:07.508Z,101725.78
2022-12-27T07:41:05.680Z,101733.59
2022-12-27T07:46:04.247Z,101736.81
2022-12-27T07:51:02.141Z,101719.75
2022-12-27T07:56:01.378Z,101723.75
2022-12-27T08:00:59.242Z,101724.66
2022-12-27T08:05:57.096Z,101717.09
2022-12-27T08:10:54.963Z,101726.69
2022-12-27T08:15:54.825Z,101724.78
2022-12-27T08:20:52.862Z,101709.88
2022-12-27T08:25:50.915Z,101703.44
2022-12-27T08:30:48.858Z,101698.84
2022-12-27T08:35:53.125Z,101704.09
2022-12-27T08:40:51.878Z,101704.72
2022-12-27T08:45:50.909Z,101702.78
2022-12-27T08:50:50.196Z,101691.88
2022-12-27T08:55:48.134Z,101698.63
2022-12-27T09:00:46.005Z,101691.50
2022-12-27T09:05:43.844Z,101680.78
2022-12-27T09:10:43.049Z,101667.25
2022-12-27T09:15:41.164Z,101667.41
2022-12-27T09:20:40.247Z,101662.03
2022-12-27T09:25:39.310Z,101648.38
2022-12-27T09:30:38.679Z,101644.19
2022-12-27T09:35:38.643Z,101640.00
2022-12-27T09:40:38.022Z,101643.41
2022-12-27T09:45:39.411Z,101631.03
2022-12-27T09:50:43.424Z,101636.56
2022-12-27T09:55:43.279Z,101640.72
2022-12-27T10:00:46.072Z,101635.88
2022-12-27T10:05:48.971Z,101634.41
2022-12-27T10:10:55.788Z,101634.47
2022-12-27T10:16:00.865Z,101623.03
2022-12-27T10:21:11.821Z,101614.78
2022-12-27T10:26:14.249Z,101597.59
2022-12-27T10:31:15.222Z,101590.91
2022-12-27T10:36:17.588Z,101587.59
2022-12-27T10:41:26.792Z,101589.09
2022-12-27T10:46:32.348Z,101570.88
2022-12-27T10:51:36.765Z,101561.63
2022-12-27T10:56:35.797Z,101547.66
2022-12-27T11:01:35.018Z,101553.34
2022-12-27T11:06:32.924Z,101548.31
2022-12-27T11:11:32.222Z,101542.78
2022-12-27T11:16:31.814Z,101541.72
2022-12-27T11:21:30.383Z,101552.19
2022-12-27T11:26:29.155Z,101542.19
2022-12-27T11:31:37.137Z,101564.69
2022-12-27T11:36:37.097Z,101562.19
2022-12-27T11:41:40.854Z,101553.56
2022-12-27T11:46:43.435Z,101540.13
2022-12-27T11:52:00.053Z,101548.56
2022-12-27T11:57:07.846Z,101553.19
2022-12-27T12:02:18.065Z,101543.09
2022-12-27T12:07:22.986Z,101549.41
2022-12-27T12:12:37.904Z,101551.34
2022-12-27T12:17:47.825Z,101562.00
2022-12-27T12:22:52.015Z,101558.00
2022-12-27T12:27:58.021Z,101563.09
2022-12-27T12:33:06.986Z,101572.28
2022-12-27T12:38:19.513Z,101564.13
2022-12-27T12:43:26.212Z,101571.78
2022-12-27T12:48:36.749Z,101581.34
2022-12-27T12:53:41.490Z,101580.59
2022-12-27T12:58:46.287Z,101587.56
2022-12-27T13:04:08.290Z,101587.75
2022-12-27T13:09:10.203Z,101602.25
2022-12-27T13:14:17.569Z,101612.84
2022-12-27T13:19:31.287Z,101611.59
2022-12-27T13:24:39.729Z,101617.88
2022-12-27T13:29:53.007Z,101631.22
2022-12-27T13:34:57.034Z,101637.59
2022-12-27T13:40:07.423Z,101649.94
2022-12-27T13:45:09.215Z,101663.66
2022-12-27T13:50:25.030Z,101664.25
2022-12-27T13:55:31.930Z,101670.84
2022-12-27T14:00:33.153Z,101672.28
2022-12-27T14:05:45.965Z,101679.16
2022-12-27T14:10:47.444Z,101670.00
2022-12-27T14:16:16.069Z,101679.44
2022-12-27T14:21:26.113Z,101677.00
2022-12-27T14:26:50.691Z,101693.50
2022-12-27T14:32:01.665Z,101699.47
2022-12-27T14:37:17.539Z,101703.06
2022-12-27T14:42:35.088Z,101708.72
2022-12-27T14:47:44.527Z,101718.22
2022-12-27T14:52:51.179Z,101703.28
2022-12-27T14:57:52.716Z,101728.31
2022-12-27T15:03:01.908Z,101739.00
2022-12-27T15:08:08.741Z,101740.88
2022-12-27T15:13:14.333Z,101751.13
2022-12-27T15:18:24.759Z,101757.69
2022-12-27T15:23:28.110Z,101769.53
2022-12-27T15:28:30.816Z,101778.72
2022-12-27T15:33:34.900Z,101783.16
2022-12-27T15:38:47.157Z,101790.75
2022-12-27T15:43:59.184Z,101783.66
2022-12-27T15:49:07.976Z,101786.34
2022-12-27T15:54:16.299Z,101795.66
2022-12-27T15:59:36.297Z,101803.97
2022-12-27T16:04:49.082Z,101809.13
2022-12-27T16:09:46.981Z,101814.69
2022-12-27T16:14:45.186Z,101815.13
2022-12-27T16:19:55.846Z,101819.13
2022-12-27T16:24:53.683Z,101821.72
2022-12-27T16:29:51.536Z,101830.72
2022-12-27T16:34:51.687Z,101838.94
2022-12-27T16:39:56.461Z,101838.75
2022-12-27T16:44:57.537Z,101849.25
2022-12-27T16:50:05.643Z,101839.88
2022-12-27T16:55:12.878Z,101851.38
2022-12-27T17:00:24.743Z,101863.53
2022-12-27T17:05:36.468Z,101863.34
2022-12-27T17:10:44.339Z,101872.84
2022-12-27T17:15:49.462Z,101884.19
2022-12-27T17:20:53.106Z,101891.91
2022-12-27T17:25:56.160Z,101891.13
2022-12-27T17:30:58.959Z,101901.34
2022-12-27T17:36:14.697Z,101903.22
2022-12-27T17:41:18.863Z,101915.50
2022-12-27T17:46:27.781Z,101906.44
2022-12-27T17:51:26.895Z,101908.66
2022-12-27T17:56:43.520Z,101924.00
2022-12-27T18:01:47.324Z,101922.72
2022-12-27T18:06:45.351Z,101928.13
2022-12-27T18:11:44.709Z,101934.84
2022-12-27T18:16:42.617Z,101937.66
2022-12-27T18:21:54.625Z,101930.47
2022-12-27T18:27:00.603Z,101937.44
2022-12-27T18:32:00.231Z,101944.22
2022-12-27T18:37:00.049Z,101968.50
2022-12-27T18:42:00.627Z,101964.06
2022-12-27T18:47:01.169Z,101967.09
2022-12-27T18:51:59.278Z,101966.50
2022-12-27T18:56:57.895Z,101980.59
2022-12-27T19:01:58.244Z,101976.63
2022-12-27T19:07:07.900Z,101994.97
2022-12-27T19:12:07.233Z,101989.72
2022-12-27T19:17:11.094Z,101996.81
2022-12-27T19:22:24.192Z,101991.19
2022-12-27T19:27:24.905Z,102003.88
2022-12-27T19:32:27.955Z,101994.28
2022-12-27T19:37:27.061Z,101995.31
2022-12-27T19:42:27.764Z,102017.25
2022-12-27T19:47:28.357Z,102008.56
2022-12-27T19:52:26.961Z,102020.84
2022-12-27T19:57:24.885Z,102014.91
2022-12-27T20:02:23.462Z,102009.78
2022-12-27T20:07:23.943Z,102021.69
2022-12-27T20:12:21.781Z,102016.84
2022-12-27T20:17:19.676Z,102027.75
2022-12-27T20:22:17.548Z,102035.72
2022-12-27T20:27:17.123Z,102048.38
2022-12-27T20:32:15.032Z,102043.38
2022-12-27T20:37:12.935Z,102055.13
2022-12-27T20:42:10.765Z,102064.38
2022-12-27T20:47:09.975Z,102075.38
2022-12-27T20:52:07.808Z,102074.31
2022-12-27T20:57:05.712Z,102079.66
2022-12-27T21:02:03.867Z,102104.41
2022-12-27T21:07:03.158Z,102115.03
2022-12-27T21:12:01.139Z,102129.88
2022-12-27T21:16:59.138Z,102134.66
2022-12-27T21:21:57.011Z,102155.44
2022-12-27T21:26:56.754Z,102166.91
2022-12-27T21:31:54.661Z,102163.97
2022-12-27T21:36:53.113Z,102178.06
2022-12-27T21:42:03.673Z,102189.47
2022-12-27T21:47:06.854Z,102178.75
2022-12-27T21:52:04.840Z,102188.69
2022-12-27T21:57:04.040Z,102198.09
2022-12-27T22:02:02.038Z,102202.84
2022-12-27T22:06:59.987Z,102208.25
2022-12-27T22:11:58.017Z,102209.50
2022-12-27T22:17:00.055Z,102221.00
2022-12-27T22:21:57.884Z,102218.44
2022-12-27T22:26:56.112Z,102210.94
2022-12-27T22:31:54.442Z,102244.50
2022-12-27T22:36:53.994Z,102226.69
2022-12-27T22:41:51.896Z,102210.84
2022-12-27T22:52:08.850Z,102231.28
2022-12-27T22:57:06.816Z,102226.69
2022-12-27T23:02:04.997Z,102234.78
2022-12-27T23:07:02.872Z,102227.84
2022-12-27T23:12:02.092Z,102228.09
2022-12-27T23:16:59.933Z,102225.63
2022-12-27T23:21:57.756Z,102226.84
2022-12-27T23:26:55.611Z,102223.75
2022-12-27T23:31:56.104Z,102242.41
2022-12-27T23:36:54.238Z,102235.59
2022-12-27T23:41:52.061Z,102215.16
2022-12-27T23:46:50.048Z,102228.94
2022-12-27T23:51:49.323Z,102233.97
2022-12-27T23:56:47.122Z,102240.78
